createdAt,value
2022-09-07T00:01:23.137Z,13.71
2022-09-07T00:03:56.506Z,13.61
2022-09-07T00:06:25.375Z,13.54
2022-09-07T00:08:54.187Z,13.50
2022-09-07T00:11:23.012Z,13.44
2022-09-07T00:13:51.767Z,13.40
2022-09-07T00:16:25.015Z,13.33
2022-09-07T00:18:57.301Z,13.28
2022-09-07T00:21:27.091Z,13.23
2022-09-07T00:23:56.608Z,13.22
2022-09-07T00:26:29.166Z,13.28
2022-09-07T00:29:00.667Z,13.33
2022-09-07T00:31:31.511Z,13.28
2022-09-07T00:34:03.106Z,13.25
2022-09-07T00:36:31.768Z,13.26
2022-09-07T00:39:00.366Z,13.23
2022-09-07T00:41:29.381Z,13.24
2022-09-07T00:44:37.662Z,13.23
2022-09-07T00:47:19.723Z,13.17
2022-09-07T00:49:57.426Z,13.09
2022-09-07T00:52:29.617Z,13.07
2022-09-07T00:55:04.042Z,13.04
2022-09-07T00:57:34.337Z,13.01
2022-09-07T01:00:05.362Z,12.97
2022-09-07T01:02:34.235Z,12.97
2022-09-07T01:05:16.429Z,13.00
2022-09-07T01:07:46.290Z,12.98
2022-09-07T01:10:15.637Z,13.00
2022-09-07T01:12:44.351Z,12.95
2022-09-07T01:15:13.349Z,12.96
2022-09-07T01:17:47.911Z,12.98
2022-09-07T01:20:36.904Z,12.92
2022-09-07T01:24:22.998Z,12.84
2022-09-07T01:27:09.001Z,12.77
2022-09-07T01:30:09.515Z,12.75
2022-09-07T01:33:09.664Z,12.74
2022-09-07T01:35:48.434Z,12.67
2022-09-07T01:38:35.800Z,12.60
2022-09-07T01:41:45.199Z,12.49
2022-09-07T01:44:32.857Z,12.39
2022-09-07T01:47:42.611Z,12.34
2022-09-07T01:50:28.809Z,12.25
2022-09-07T01:53:15.738Z,12.15
2022-09-07T01:55:57.352Z,12.07
2022-09-07T01:58:25.932Z,12.00
2022-09-07T02:01:11.502Z,11.94
2022-09-07T02:03:53.316Z,11.92
2022-09-07T02:06:47.477Z,11.86
2022-09-07T02:09:37.502Z,11.85
2022-09-07T02:12:22.168Z,11.81
2022-09-07T02:14:59.973Z,11.81
2022-09-07T02:17:39.940Z,11.79
2022-09-07T02:20:32.338Z,11.74
2022-09-07T02:23:07.023Z,11.73
2022-09-07T02:25:46.301Z,11.77
2022-09-07T02:28:21.563Z,11.79
2022-09-07T02:30:50.476Z,11.81
2022-09-07T02:33:19.462Z,11.79
2022-09-07T02:35:48.708Z,11.77
2022-09-07T02:38:18.020Z,11.76
2022-09-07T02:41:00.149Z,11.73
2022-09-07T02:43:31.697Z,11.77
2022-09-07T02:46:33.623Z,11.74
2022-09-07T02:49:24.053Z,11.66
2022-09-07T02:52:20.017Z,11.60
2022-09-07T02:55:21.382Z,11.57
2022-09-07T02:59:00.991Z,11.50
2022-09-07T03:02:00.548Z,11.45
2022-09-07T03:04:48.501Z,11.44
2022-09-07T03:07:36.245Z,11.36
2022-09-07T03:10:09.766Z,11.28
2022-09-07T03:12:48.624Z,11.24
2022-09-07T03:15:22.359Z,11.17
2022-09-07T03:17:52.044Z,11.05
2022-09-07T03:20:24.302Z,10.95
2022-09-07T03:22:53.173Z,10.84
2022-09-07T03:25:23.247Z,10.78
2022-09-07T03:27:51.967Z,10.73
2022-09-07T03:30:21.089Z,10.68
2022-09-07T03:32:49.869Z,10.60
2022-09-07T03:35:19.050Z,10.54
2022-09-07T03:37:47.782Z,10.46
2022-09-07T03:40:17.185Z,10.40
2022-09-07T03:42:52.647Z,10.37
2022-09-07T03:45:21.344Z,10.32
2022-09-07T03:47:51.516Z,10.28
2022-09-07T03:50:20.221Z,10.26
2022-09-07T03:52:49.006Z,10.26
2022-09-07T03:55:17.860Z,10.28
2022-09-07T03:57:46.531Z,10.31
2022-09-07T04:00:15.375Z,10.33
2022-09-07T04:02:44.263Z,10.38
2022-09-07T04:05:13.312Z,10.40
2022-09-07T04:07:41.960Z,10.42
2022-09-07T04:10:11.006Z,10.46
2022-09-07T04:12:40.073Z,10.48
2022-09-07T04:15:09.509Z,10.51
2022-09-07T04:17:38.807Z,10.53
2022-09-07T04:20:08.982Z,10.57
2022-09-07T04:22:37.599Z,10.67
2022-09-07T04:25:06.509Z,10.71
2022-09-07T04:27:35.172Z,10.80
2022-09-07T04:30:04.084Z,10.84
2022-09-07T04:32:32.867Z,10.87
2022-09-07T04:35:01.569Z,10.96
2022-09-07T04:37:30.576Z,11.00
2022-09-07T04:39:59.350Z,11.16
2022-09-07T04:42:28.147Z,11.30
2022-09-07T04:44:57.353Z,11.37
2022-09-07T04:47:26.246Z,11.56
2022-09-07T04:49:55.000Z,11.73
2022-09-07T04:52:25.974Z,11.76
2022-09-07T04:54:54.658Z,11.86
2022-09-07T04:57:26.125Z,12.07
2022-09-07T04:59:55.307Z,12.13
2022-09-07T05:02:24.135Z,12.29
2022-09-07T05:04:53.083Z,12.37
2022-09-07T05:07:21.735Z,12.43
2022-09-07T05:09:50.483Z,12.46
2022-09-07T05:12:19.278Z,12.53
2022-09-07T05:14:47.911Z,12.59
2022-09-07T05:17:16.700Z,12.68
2022-09-07T05:19:45.593Z,12.79
2022-09-07T05:22:14.456Z,12.90
2022-09-07T05:24:43.086Z,13.00
2022-09-07T05:27:11.918Z,13.10
2022-09-07T05:32:29.508Z,13.35
2022-09-07T05:34:58.272Z,13.46
2022-09-07T05:37:26.923Z,13.57
2022-09-07T05:39:57.337Z,13.67
2022-09-07T05:42:26.361Z,13.78
2022-09-07T05:44:55.049Z,13.92
2022-09-07T05:47:24.719Z,14.05
2022-09-07T05:49:57.045Z,14.12
2022-09-07T05:52:26.144Z,14.22
2022-09-07T05:55:07.524Z,14.37
2022-09-07T05:57:44.383Z,14.54
2022-09-07T06:00:14.689Z,14.63
2022-09-07T06:02:43.579Z,14.64
2022-09-07T06:05:12.465Z,14.64
2022-09-07T06:07:41.306Z,14.63
2022-09-07T06:12:58.956Z,14.99
2022-09-07T06:15:27.661Z,15.15
2022-09-07T06:17:56.336Z,15.27
2022-09-07T06:20:25.031Z,15.32
2022-09-07T06:22:53.682Z,15.24
2022-09-07T06:25:22.393Z,15.17
2022-09-07T06:27:52.016Z,15.20
2022-09-07T06:30:21.811Z,15.20
2022-09-07T06:32:50.586Z,15.24
2022-09-07T06:35:19.286Z,15.33
2022-09-07T06:37:47.922Z,15.48
2022-09-07T06:40:16.964Z,15.72
2022-09-07T06:42:45.658Z,15.93
2022-09-07T06:45:17.322Z,16.17
2022-09-07T06:47:46.062Z,16.38
2022-09-07T06:50:16.055Z,16.53
2022-09-07T06:55:33.388Z,16.94
2022-09-07T06:58:02.105Z,17.01
2022-09-07T07:00:30.871Z,17.09
2022-09-07T07:02:59.607Z,17.16
2022-09-07T07:05:28.843Z,17.30
2022-09-07T07:07:58.334Z,17.20
2022-09-07T07:10:27.097Z,17.29
2022-09-07T07:12:58.766Z,17.33
2022-09-07T07:15:30.815Z,17.41
2022-09-07T07:18:13.415Z,17.57
2022-09-07T07:20:48.627Z,17.68
2022-09-07T07:23:17.407Z,17.69
2022-09-07T07:25:46.208Z,17.74
2022-09-07T07:31:10.428Z,17.86
2022-09-07T07:33:41.830Z,17.92
2022-09-07T07:36:24.336Z,18.05
2022-09-07T07:38:58.858Z,18.21
2022-09-07T07:44:21.134Z,18.60
2022-09-07T07:46:51.637Z,18.57
2022-09-07T07:49:20.526Z,18.69
2022-09-07T07:54:38.051Z,18.92
2022-09-07T07:57:06.745Z,19.03
2022-09-07T07:59:36.191Z,19.07
2022-09-07T08:02:07.370Z,19.08
2022-09-07T08:04:37.135Z,19.17
2022-09-07T08:07:10.489Z,19.52
2022-09-07T08:09:43.365Z,19.65
2022-09-07T08:12:19.198Z,19.67
2022-09-07T08:14:49.033Z,19.53
2022-09-07T08:17:18.069Z,19.75
2022-09-07T08:19:46.847Z,19.71
2022-09-07T08:22:15.780Z,19.69
2022-09-07T08:24:44.626Z,19.96
2022-09-07T08:27:13.789Z,20.34
2022-09-07T08:29:43.341Z,20.39
2022-09-07T08:32:12.108Z,20.09
2022-09-07T08:34:40.923Z,20.21
2022-09-07T08:37:09.842Z,20.41
2022-09-07T08:39:39.343Z,20.19
2022-09-07T08:42:08.231Z,20.44
2022-09-07T08:44:51.440Z,20.57
2022-09-07T08:47:41.748Z,20.08
2022-09-07T08:50:52.576Z,19.98
2022-09-07T08:53:25.325Z,19.95
2022-09-07T08:56:10.033Z,19.99
2022-09-07T08:58:53.581Z,20.02
2022-09-07T09:01:31.037Z,20.13
2022-09-07T09:04:18.181Z,20.34
2022-09-07T09:07:31.193Z,20.63
2022-09-07T09:10:35.000Z,20.78
2022-09-07T09:13:27.049Z,20.78
2022-09-07T09:16:43.473Z,20.59
2022-09-07T09:19:39.804Z,20.43
2022-09-07T09:22:25.929Z,20.75
2022-09-07T09:25:16.125Z,21.13
2022-09-07T09:27:44.937Z,21.43
2022-09-07T09:30:17.623Z,21.64
2022-09-07T09:32:48.050Z,21.61
2022-09-07T09:35:36.837Z,21.45
2022-09-07T09:38:06.178Z,21.57
2022-09-07T09:40:38.290Z,21.57
2022-09-07T09:43:20.177Z,21.89
2022-09-07T09:48:42.394Z,21.32
2022-09-07T09:54:20.394Z,21.98
2022-09-07T09:56:49.944Z,22.31
2022-09-07T10:05:30.845Z,22.40
2022-09-07T10:07:59.670Z,22.54
2022-09-07T10:10:29.845Z,22.76
2022-09-07T10:12:58.937Z,22.56
2022-09-07T10:15:40.387Z,22.55
2022-09-07T10:18:37.994Z,22.38
2022-09-07T10:21:30.673Z,22.12
2022-09-07T10:24:07.981Z,22.11
2022-09-07T10:26:39.531Z,22.25
2022-09-07T10:29:19.540Z,22.29
2022-09-07T10:32:16.299Z,22.79
2022-09-07T10:35:28.734Z,22.91
2022-09-07T10:38:28.904Z,22.61
2022-09-07T10:41:07.758Z,22.93
2022-09-07T10:43:37.275Z,22.69
2022-09-07T10:49:27.856Z,23.53
2022-09-07T10:52:33.330Z,23.36
2022-09-07T10:55:20.892Z,23.16
2022-09-07T10:59:01.504Z,23.47
2022-09-07T11:01:36.759Z,23.57
2022-09-07T11:04:44.947Z,23.92
2022-09-07T11:07:34.799Z,24.35
2022-09-07T11:10:43.395Z,24.27
2022-09-07T11:13:18.358Z,24.91
2022-09-07T11:15:58.950Z,25.18
2022-09-07T11:22:28.810Z,25.18
2022-09-07T11:28:21.544Z,23.25
2022-09-07T11:31:00.330Z,23.40
2022-09-07T11:34:23.793Z,23.17
2022-09-07T11:36:50.291Z,22.72
2022-09-07T11:39:41.149Z,23.30
2022-09-07T11:45:27.827Z,23.35
2022-09-07T11:48:21.807Z,23.23
2022-09-07T11:51:10.945Z,23.00
2022-09-07T11:53:48.725Z,23.30
2022-09-07T11:56:57.816Z,23.17
2022-09-07T11:59:43.019Z,22.99
2022-09-07T12:02:42.066Z,23.03
2022-09-07T12:05:25.407Z,23.19
2022-09-07T12:08:16.272Z,23.39
2022-09-07T12:11:08.023Z,24.07
2022-09-07T12:14:36.117Z,24.55
2022-09-07T12:17:46.128Z,25.10
2022-09-07T12:20:22.349Z,26.28
2022-09-07T12:23:21.272Z,26.90
2022-09-07T12:25:52.022Z,27.78
2022-09-07T12:28:23.611Z,28.06
2022-09-07T12:31:12.805Z,27.62
2022-09-07T12:33:41.618Z,28.39
2022-09-07T12:36:32.433Z,28.76
2022-09-07T12:39:29.159Z,27.54
2022-09-07T12:45:29.594Z,27.20
2022-09-07T12:48:10.717Z,26.70
2022-09-07T12:51:59.589Z,27.57
2022-09-07T12:54:38.205Z,25.64
2022-09-07T12:57:49.869Z,25.37
2022-09-07T13:00:33.328Z,24.87
2022-09-07T13:03:52.500Z,25.22
2022-09-07T13:07:02.526Z,25.30
2022-09-07T13:09:38.403Z,25.21
2022-09-07T13:15:52.257Z,25.18
2022-09-07T13:18:27.634Z,25.01
2022-09-07T13:21:09.538Z,24.23
2022-09-07T13:23:45.511Z,24.01
2022-09-07T13:27:08.765Z,24.21
2022-09-07T13:29:50.735Z,24.34
2022-09-07T13:35:25.775Z,23.60
2022-09-07T13:38:04.016Z,23.84
2022-09-07T13:40:42.252Z,23.68
2022-09-07T13:43:24.239Z,23.68
2022-09-07T13:45:56.152Z,23.61
2022-09-07T13:48:49.430Z,23.61
2022-09-07T13:51:49.716Z,23.81
2022-09-07T13:55:03.727Z,24.26
2022-09-07T13:58:01.918Z,24.06
2022-09-07T14:00:31.459Z,23.58
2022-09-07T14:03:07.695Z,23.67
2022-09-07T14:05:36.519Z,23.92
2022-09-07T14:08:05.418Z,24.28
2022-09-07T14:10:34.065Z,24.00
2022-09-07T14:13:11.703Z,24.03
2022-09-07T14:15:49.179Z,24.05
2022-09-07T14:18:31.831Z,24.93
2022-09-07T14:21:03.099Z,25.07
2022-09-07T14:23:35.845Z,25.25
2022-09-07T14:26:23.523Z,25.19
2022-09-07T14:28:57.091Z,25.17
2022-09-07T14:31:27.157Z,25.45
2022-09-07T14:33:59.564Z,25.47
2022-09-07T14:36:45.817Z,26.22
2022-09-07T14:39:18.873Z,26.71
2022-09-07T14:41:51.349Z,26.65
2022-09-07T14:44:43.324Z,26.58
2022-09-07T14:47:29.656Z,27.32
2022-09-07T14:50:06.472Z,27.88
2022-09-07T14:53:33.518Z,26.96
2022-09-07T14:55:44.793Z,26.78
2022-09-07T14:58:16.669Z,27.10
2022-09-07T15:01:37.094Z,27.10
2022-09-07T15:03:41.579Z,27.20
2022-09-07T15:07:01.016Z,26.87
2022-09-07T15:09:01.565Z,27.25
2022-09-07T15:11:36.736Z,27.57
2022-09-07T15:14:08.951Z,26.78
2022-09-07T15:16:45.106Z,27.50
2022-09-07T15:19:16.814Z,27.72
2022-09-07T15:21:46.350Z,27.07
2022-09-07T15:24:16.418Z,26.48
2022-09-07T15:27:05.226Z,27.25
2022-09-07T15:29:34.023Z,27.51
2022-09-07T15:32:05.173Z,27.39
2022-09-07T15:34:36.613Z,27.04
2022-09-07T15:38:01.095Z,26.77
2022-09-07T15:39:54.217Z,26.18
2022-09-07T15:45:12.451Z,25.75
2022-09-07T15:47:47.040Z,25.83
2022-09-07T15:50:19.615Z,26.23
2022-09-07T15:52:48.389Z,26.39
2022-09-07T15:55:19.731Z,26.09
2022-09-07T15:57:51.257Z,25.99
2022-09-07T16:00:21.766Z,25.97
2022-09-07T16:03:07.389Z,25.66
2022-09-07T16:05:44.400Z,25.93
2022-09-07T16:11:23.982Z,24.37
2022-09-07T16:14:01.831Z,23.78
2022-09-07T16:19:21.585Z,23.00
2022-09-07T16:21:50.234Z,22.72
2022-09-07T16:24:19.262Z,22.40
2022-09-07T16:26:47.901Z,22.17
2022-09-07T16:29:17.654Z,22.03
2022-09-07T16:34:35.542Z,21.48
2022-09-07T16:37:04.447Z,21.31
2022-09-07T16:39:34.147Z,21.18
2022-09-07T16:42:03.463Z,21.03
2022-09-07T16:44:34.638Z,20.81
2022-09-07T16:47:04.591Z,20.69
2022-09-07T16:49:33.255Z,20.51
2022-09-07T16:52:24.089Z,20.33
2022-09-07T16:54:59.659Z,20.06
2022-09-07T16:58:35.397Z,19.83
2022-09-07T17:00:17.875Z,19.58
2022-09-07T17:02:46.555Z,19.36
2022-09-07T17:05:15.734Z,19.16
2022-09-07T17:07:44.385Z,18.93
2022-09-07T17:10:13.228Z,18.75
2022-09-07T17:12:41.856Z,18.53
2022-09-07T17:15:11.127Z,18.34
2022-09-07T17:17:40.438Z,18.14
2022-09-07T17:20:09.937Z,17.90
2022-09-07T17:22:38.559Z,17.71
2022-09-07T17:25:08.915Z,17.57
2022-09-07T17:27:37.927Z,17.44
2022-09-07T17:30:07.866Z,17.31
2022-09-07T17:32:36.472Z,17.19
2022-09-07T17:35:14.441Z,17.00
2022-09-07T17:37:48.132Z,16.74
2022-09-07T17:40:17.166Z,16.56
2022-09-07T17:45:34.745Z,16.42
2022-09-07T17:48:03.554Z,16.39
2022-09-07T17:50:32.220Z,16.33
2022-09-07T17:53:00.855Z,16.25
2022-09-07T17:55:31.768Z,16.14
2022-09-07T17:58:04.782Z,16.07
2022-09-07T18:00:34.783Z,16.01
2022-09-07T18:03:03.792Z,15.97
2022-09-07T18:05:33.925Z,15.86
2022-09-07T18:08:02.912Z,15.77
2022-09-07T18:13:36.307Z,15.43
2022-09-07T18:16:43.720Z,15.53
2022-09-07T18:19:20.965Z,15.46
2022-09-07T18:21:51.926Z,15.42
2022-09-07T18:24:30.744Z,15.36
2022-09-07T18:26:59.427Z,15.30
2022-09-07T18:29:32.938Z,15.26
2022-09-07T18:32:08.702Z,15.17
2022-09-07T18:34:41.420Z,15.10
2022-09-07T18:37:22.535Z,15.05
2022-09-07T18:40:04.321Z,15.02
2022-09-07T18:42:35.114Z,14.99
2022-09-07T18:47:52.916Z,14.92
2022-09-07T18:50:23.578Z,14.88
2022-09-07T18:52:52.815Z,14.84
2022-09-07T18:55:22.044Z,14.81
2022-09-07T18:57:50.605Z,14.78
2022-09-07T19:00:22.361Z,14.74
2022-09-07T19:02:51.519Z,14.70
2022-09-07T19:08:08.904Z,14.59
2022-09-07T19:10:38.505Z,14.52
2022-09-07T19:13:07.234Z,14.48
2022-09-07T19:15:37.646Z,14.44
2022-09-07T19:18:08.505Z,14.43
2022-09-07T19:20:37.542Z,14.40
2022-09-07T19:23:06.823Z,14.40
2022-09-07T19:25:41.257Z,14.39
2022-09-07T19:28:09.819Z,14.39
2022-09-07T19:30:38.407Z,14.42
2022-09-07T19:33:10.260Z,14.45
2022-09-07T19:35:38.895Z,14.46
2022-09-07T19:38:07.565Z,14.48
2022-09-07T19:40:36.193Z,14.50
2022-09-07T19:43:05.337Z,14.58
2022-09-07T19:45:39.840Z,14.64
2022-09-07T19:48:08.441Z,14.68
2022-09-07T19:50:37.123Z,14.70
2022-09-07T19:53:06.304Z,14.70
2022-09-07T19:55:34.915Z,14.74
2022-09-07T19:58:03.517Z,14.79
2022-09-07T20:00:32.219Z,14.81
2022-09-07T20:03:01.043Z,14.84
2022-09-07T20:05:31.385Z,14.86
2022-09-07T20:08:00.061Z,14.89
2022-09-07T20:10:30.429Z,14.92
2022-09-07T20:12:59.199Z,14.97
2022-09-07T20:15:28.071Z,14.99
2022-09-07T20:17:56.767Z,15.02
2022-09-07T20:20:25.717Z,15.01
2022-09-07T20:22:54.572Z,15.02
2022-09-07T20:25:23.536Z,15.01
2022-09-07T20:27:52.340Z,15.04
2022-09-07T20:30:24.615Z,15.05
2022-09-07T20:32:53.610Z,15.07
2022-09-07T20:35:22.393Z,15.09
2022-09-07T20:37:51.107Z,15.08
2022-09-07T20:40:20.387Z,15.03
2022-09-07T20:42:49.096Z,14.95
2022-09-07T20:45:18.305Z,14.90
2022-09-07T20:47:47.027Z,14.84
2022-09-07T20:50:15.718Z,14.73
2022-09-07T20:52:44.329Z,14.60
2022-09-07T20:55:12.938Z,14.52
2022-09-07T20:57:41.627Z,14.38
2022-09-07T21:00:10.707Z,14.29
2022-09-07T21:02:39.471Z,14.12
2022-09-07T21:05:08.585Z,13.98
2022-09-07T21:07:41.210Z,13.87
2022-09-07T21:10:10.321Z,13.78
2022-09-07T21:12:39.159Z,13.73
2022-09-07T21:15:09.327Z,13.68
2022-09-07T21:17:39.054Z,13.69
2022-09-07T21:20:07.971Z,13.70
2022-09-07T21:22:36.550Z,13.70
2022-09-07T21:25:05.755Z,13.71
2022-09-07T21:27:38.803Z,13.72
2022-09-07T21:30:09.221Z,13.73
2022-09-07T21:32:38.044Z,13.74
2022-09-07T21:35:08.174Z,13.75
2022-09-07T21:37:39.522Z,13.75
2022-09-07T21:40:09.265Z,13.76
2022-09-07T21:42:38.902Z,13.79
2022-09-07T21:45:09.456Z,13.83
2022-09-07T21:47:40.872Z,13.84
2022-09-07T21:50:09.619Z,13.86
2022-09-07T21:52:39.126Z,13.84
2022-09-07T21:55:08.718Z,13.79
2022-09-07T21:57:37.337Z,13.79
2022-09-07T22:00:09.226Z,13.79
2022-09-07T22:02:37.911Z,13.79
2022-09-07T22:05:06.791Z,13.78
2022-09-07T22:07:35.413Z,13.78
2022-09-07T22:10:04.250Z,13.76
2022-09-07T22:12:32.831Z,13.75
2022-09-07T22:15:01.504Z,13.73
2022-09-07T22:17:30.198Z,13.74
2022-09-07T22:19:58.825Z,13.75
2022-09-07T22:22:27.793Z,13.76
2022-09-07T22:24:56.422Z,13.79
2022-09-07T22:27:25.103Z,13.79
2022-09-07T22:29:53.679Z,13.81
2022-09-07T22:32:23.011Z,13.81
2022-09-07T22:34:51.975Z,13.77
2022-09-07T22:37:20.610Z,13.78
2022-09-07T22:39:49.240Z,13.78
2022-09-07T22:42:17.962Z,13.81
2022-09-07T22:44:46.637Z,13.83
2022-09-07T22:47:15.902Z,13.85
2022-09-07T22:49:44.489Z,13.84
2022-09-07T22:52:13.180Z,13.82
2022-09-07T22:54:41.807Z,13.82
2022-09-07T22:57:10.558Z,13.83
2022-09-07T22:59:39.318Z,13.82
2022-09-07T23:02:08.010Z,13.79
2022-09-07T23:04:36.743Z,13.72
2022-09-07T23:07:07.882Z,13.63
2022-09-07T23:09:36.526Z,13.55
2022-09-07T23:12:05.291Z,13.50
2022-09-07T23:14:34.049Z,13.46
2022-09-07T23:17:02.740Z,13.39
2022-09-07T23:19:31.402Z,13.30
2022-09-07T23:22:01.021Z,13.19
2022-09-07T23:24:29.679Z,13.07
2022-09-07T23:26:58.308Z,13.01
2022-09-07T23:29:27.048Z,12.97
2022-09-07T23:31:55.833Z,12.93
2022-09-07T23:34:24.482Z,12.88
2022-09-07T23:36:53.131Z,12.81
2022-09-07T23:39:21.921Z,12.74
2022-09-07T23:41:50.800Z,12.67
2022-09-07T23:44:19.402Z,12.62
2022-09-07T23:46:48.136Z,12.59
2022-09-07T23:49:16.945Z,12.55
2022-09-07T23:51:45.625Z,12.53
2022-09-07T23:54:14.197Z,12.48
2022-09-07T23:56:42.883Z,12.43
2022-09-07T23:59:12.045Z,12.38
